Time;durP1;ratioP1;P1;durP2;ratioP2;P2;SDS_P1;SDS_P2;PMS_P1;PMS_P2;Temp;Humidity;BMP_temperature;BMP_pressure;BME280_temperature;BME280_humidity;BME280_pressure;Samples;Min_cycle;Max_cycle;Signal;HPM_P1;HPM_P2
2023/12/30 00:01:37;;;;;;;10.15;6.35;;;;;;;-145.63;100.00;61273.97;5063886;28;20043;-62
2023/12/30 00:04:03;;;;;;;8.93;6.40;;;;;;;-145.63;100.00;61273.97;5053062;28;20048;-62
2023/12/30 00:06:29;;;;;;;8.10;5.93;;;;;;;-145.63;100.00;61273.97;5063767;28;20037;-63
2023/12/30 00:08:54;;;;;;;7.95;6.25;;;;;;;-145.63;100.00;61273.97;5063577;28;20321;-63
2023/12/30 00:11:20;;;;;;;8.27;6.00;;;;;;;-145.63;100.00;61273.97;5063845;28;20365;-62
2023/12/30 00:13:45;;;;;;;7.78;6.00;;;;;;;-145.63;100.00;61273.97;5063598;28;20039;-62
2023/12/30 00:16:13;;;;;;;6.28;5.47;;;;;;;-145.63;100.00;61273.97;5063663;28;20037;-63
2023/12/30 00:18:39;;;;;;;6.95;6.25;;;;;;;-145.63;100.00;61273.97;5053168;28;20032;-63
2023/12/30 00:21:04;;;;;;;9.45;5.72;;;;;;;-145.63;100.00;61273.97;5049530;28;20092;-63
2023/12/30 00:23:30;;;;;;;6.80;5.72;;;;;;;-145.63;100.00;61273.97;5064847;28;20025;-63
2023/12/30 00:25:56;;;;;;;7.10;5.20;;;;;;;-145.63;100.00;61273.97;5064591;28;20306;-63
2023/12/30 00:28:21;;;;;;;6.88;5.40;;;;;;;-145.63;100.00;61273.97;5047262;28;20033;-63
2023/12/30 00:30:47;;;;;;;6.93;5.68;;;;;;;-145.63;100.00;61273.97;5061024;28;20378;-63
2023/12/30 00:33:13;;;;;;;6.47;5.25;;;;;;;-145.63;100.00;61273.97;5063511;28;20039;-63
2023/12/30 00:35:39;;;;;;;6.15;5.10;;;;;;;-145.63;100.00;61273.97;5063010;28;20045;-64
2023/12/30 00:38:04;;;;;;;7.40;5.00;;;;;;;-145.63;100.00;61273.97;5063263;28;20045;-65
2023/12/30 00:40:30;;;;;;;7.80;4.72;;;;;;;-145.63;100.00;61273.97;5063293;28;20036;-65
2023/12/30 00:42:55;;;;;;;6.60;5.20;;;;;;;-145.63;100.00;61273.97;5050293;28;20028;-65
2023/12/30 00:45:21;;;;;;;5.72;4.50;;;;;;;-145.63;100.00;61273.97;5056444;28;20305;-65
2023/12/30 00:47:47;;;;;;;5.90;4.97;;;;;;;-145.63;100.00;61273.97;5062334;28;20044;-65
2023/12/30 00:50:13;;;;;;;5.82;5.22;;;;;;;-145.63;100.00;61273.97;5063143;28;20041;-65
2023/12/30 00:52:38;;;;;;;6.53;4.97;;;;;;;-145.63;100.00;61273.97;5061919;28;20259;-65
2023/12/30 00:55:04;;;;;;;5.07;4.38;;;;;;;-145.63;100.00;61273.97;5062667;28;20035;-64
2023/12/30 00:57:30;;;;;;;5.05;4.25;;;;;;;-145.63;100.00;61273.97;5053657;28;20037;-65
2023/12/30 00:59:56;;;;;;;4.50;3.83;;;;;;;-145.63;100.00;61273.97;5050303;28;20029;-63
2023/12/30 01:02:21;;;;;;;5.18;3.80;;;;;;;-145.63;100.00;61273.97;5062692;28;20216;-64
2023/12/30 01:04:47;;;;;;;4.38;3.63;;;;;;;-145.63;100.00;61273.97;5062516;28;20041;-64
2023/12/30 01:07:13;;;;;;;4.80;3.35;;;;;;;-145.63;100.00;61273.97;5070502;28;20024;-64
2023/12/30 01:09:39;;;;;;;3.70;3.17;;;;;;;-145.63;100.00;61273.97;5052536;28;20030;-64
2023/12/30 01:12:05;;;;;;;4.55;3.38;;;;;;;-145.63;100.00;61273.97;5049594;28;20257;-64
2023/12/30 01:14:31;;;;;;;4.38;3.30;;;;;;;-145.63;100.00;61273.97;5062622;28;20336;-64
2023/12/30 01:16:56;;;;;;;3.30;3.00;;;;;;;-145.63;100.00;61273.97;5062587;28;20029;-65
2023/12/30 01:19:22;;;;;;;3.13;2.83;;;;;;;-145.63;100.00;61273.97;5047664;28;20056;-64
2023/12/30 01:21:48;;;;;;;4.90;2.90;;;;;;;-145.63;100.00;61273.97;5051197;28;20040;-63
2023/12/30 01:24:14;;;;;;;3.33;2.83;;;;;;;-145.63;100.00;61273.97;5049349;28;20029;-64
2023/12/30 01:26:39;;;;;;;2.78;2.58;;;;;;;-145.63;100.00;61273.97;5062663;28;20217;-64
2023/12/30 01:29:05;;;;;;;2.70;2.40;;;;;;;-145.63;100.00;61273.97;5062085;28;20053;-64
2023/12/30 01:31:31;;;;;;;2.85;2.35;;;;;;;-145.63;100.00;61273.97;5062521;28;20062;-64
2023/12/30 01:33:56;;;;;;;2.67;2.40;;;;;;;-145.63;100.00;61273.97;5062432;28;20210;-65
2023/12/30 01:36:22;;;;;;;2.75;2.40;;;;;;;-145.63;100.00;61273.97;5054648;28;20061;-64
2023/12/30 01:38:47;;;;;;;2.50;2.30;;;;;;;-145.63;100.00;61273.97;5045401;28;20256;-65
2023/12/30 01:41:13;;;;;;;4.90;2.50;;;;;;;-145.63;100.00;61273.97;5062129;28;20031;-64
2023/12/30 01:43:39;;;;;;;3.03;2.30;;;;;;;-145.63;100.00;61273.97;5062516;28;20067;-64
2023/12/30 01:46:08;;;;;;;2.67;2.47;;;;;;;-145.63;100.00;61273.97;5048833;28;20037;-65
2023/12/30 01:48:35;;;;;;;2.42;2.20;;;;;;;-145.63;100.00;61273.97;5061497;28;20273;-64
2023/12/30 01:51:02;;;;;;;3.50;2.40;;;;;;;-145.63;100.00;61273.97;5060207;28;20029;-63
2023/12/30 01:53:32;;;;;;;3.08;2.35;;;;;;;-145.63;100.00;61273.97;5042535;28;20068;-64
2023/12/30 01:55:58;;;;;;;2.92;2.55;;;;;;;-145.63;100.00;61273.97;5061880;28;20028;-67
2023/12/30 01:58:25;;;;;;;2.85;2.33;;;;;;;-145.63;100.00;61273.97;5062260;28;20041;-63
2023/12/30 02:00:52;;;;;;;2.50;2.30;;;;;;;-145.63;100.00;61273.97;5061984;28;20025;-64
2023/12/30 02:03:18;;;;;;;2.78;2.50;;;;;;;-145.63;100.00;61273.97;5069020;28;20309;-65
2023/12/30 02:05:47;;;;;;;2.72;2.35;;;;;;;-145.63;100.00;61273.97;5066211;28;20033;-64
2023/12/30 02:08:17;;;;;;;3.30;3.00;;;;;;;-145.63;100.00;61273.97;5062073;28;20129;-65
2023/12/30 02:10:43;;;;;;;2.92;2.63;;;;;;;-145.63;100.00;61273.97;5061740;28;20021;-65
2023/12/30 02:13:10;;;;;;;2.90;2.65;;;;;;;-145.63;100.00;61273.97;5062214;28;20105;-64
2023/12/30 02:15:36;;;;;;;2.90;2.70;;;;;;;-145.63;100.00;61273.97;5061831;28;20071;-63
2023/12/30 02:18:03;;;;;;;2.70;2.50;;;;;;;-145.63;100.00;61273.97;5061044;28;20298;-64
2023/12/30 02:20:30;;;;;;;4.32;3.40;;;;;;;-145.63;100.00;61273.97;5053375;28;20035;-64
2023/12/30 02:22:56;;;;;;;3.22;2.92;;;;;;;-145.63;100.00;61273.97;5046010;28;20089;-64
2023/12/30 02:25:22;;;;;;;3.65;2.88;;;;;;;-145.63;100.00;61273.97;5061465;28;20305;-64
2023/12/30 02:27:48;;;;;;;3.65;3.35;;;;;;;-145.63;100.00;61273.97;5065826;28;20297;-64
2023/12/30 02:30:14;;;;;;;3.47;3.17;;;;;;;-145.63;100.00;61273.97;5065812;28;20059;-63
2023/12/30 02:32:41;;;;;;;3.88;3.30;;;;;;;-145.63;100.00;61273.97;5065258;28;20359;-63
2023/12/30 02:35:07;;;;;;;3.40;3.05;;;;;;;-145.63;100.00;61273.97;5046389;28;20073;-64
2023/12/30 02:37:32;;;;;;;3.88;2.95;;;;;;;-145.63;100.00;61273.97;5062273;28;20047;-65
2023/12/30 02:39:58;;;;;;;3.45;3.15;;;;;;;-145.63;100.00;61273.97;5065483;28;20029;-65
2023/12/30 02:42:25;;;;;;;3.70;3.38;;;;;;;-145.63;100.00;61273.97;5057879;28;20073;-64
2023/12/30 02:44:51;;;;;;;3.40;3.10;;;;;;;-145.63;100.00;61273.97;5048205;28;20047;-64
2023/12/30 02:47:17;;;;;;;4.28;3.40;;;;;;;-145.63;100.00;61273.97;5064712;28;20036;-64
2023/12/30 02:49:44;;;;;;;3.78;3.42;;;;;;;-145.63;100.00;61273.97;5063530;28;20025;-64
2023/12/30 02:52:10;;;;;;;4.30;3.45;;;;;;;-145.63;100.00;61273.97;5065374;28;20032;-64
2023/12/30 02:54:36;;;;;;;3.92;3.40;;;;;;;-145.63;100.00;61273.97;5065279;28;20048;-65
2023/12/30 02:57:02;;;;;;;4.07;3.65;;;;;;;-145.63;100.00;61273.97;5063117;28;20254;-65
2023/12/30 02:59:31;;;;;;;4.05;3.75;;;;;;;-145.63;100.00;61273.97;5065548;28;20044;-65
2023/12/30 03:01:56;;;;;;;4.82;3.58;;;;;;;-145.63;100.00;61273.97;5064872;28;20040;-64
2023/12/30 03:04:22;;;;;;;3.95;3.55;;;;;;;-145.63;100.00;61273.97;5065049;28;20029;-64
2023/12/30 03:06:48;;;;;;;4.50;3.33;;;;;;;-145.63;100.00;61273.97;5058403;28;20021;-64
2023/12/30 03:09:14;;;;;;;3.85;3.50;;;;;;;-145.63;100.00;61273.97;5064820;28;20276;-65
2023/12/30 03:11:40;;;;;;;6.35;3.75;;;;;;;-145.63;100.00;61273.97;5064362;28;20032;-63
2023/12/30 03:14:05;;;;;;;3.90;3.53;;;;;;;-145.63;100.00;61273.97;5064721;28;20037;-63
2023/12/30 03:16:32;;;;;;;3.53;3.22;;;;;;;-145.63;100.00;61273.97;5064918;28;20044;-63
2023/12/30 03:18:58;;;;;;;5.53;3.35;;;;;;;-145.63;100.00;61273.97;5052841;28;20040;-63
2023/12/30 03:21:24;;;;;;;5.80;3.25;;;;;;;-145.63;100.00;61273.97;5051489;28;20028;-63
2023/12/30 03:23:50;;;;;;;3.40;3.10;;;;;;;-145.63;100.00;61273.97;5046930;28;20037;-63
2023/12/30 03:26:16;;;;;;;3.78;3.33;;;;;;;-145.63;100.00;61273.97;5064561;28;20024;-64
2023/12/30 03:28:43;;;;;;;3.13;2.83;;;;;;;-145.63;100.00;61273.97;5064496;28;20135;-64
2023/12/30 03:31:22;;;;;;;3.13;2.80;;;;;;;-145.63;100.00;61273.97;5077965;28;20221;-64
2023/12/30 03:33:48;;;;;;;3.40;2.83;;;;;;;-145.63;100.00;61273.97;5064060;28;20036;-64
2023/12/30 03:36:14;;;;;;;3.03;2.63;;;;;;;-145.63;100.00;61273.97;5064057;28;20045;-65
2023/12/30 03:38:39;;;;;;;2.50;2.30;;;;;;;-145.63;100.00;61273.97;5063896;28;20043;-65
2023/12/30 03:41:05;;;;;;;3.50;3.15;;;;;;;-145.63;100.00;61273.97;5064434;28;20029;-66
2023/12/30 03:43:30;;;;;;;2.78;2.20;;;;;;;-145.63;100.00;61273.97;5064349;28;20021;-64
2023/12/30 03:45:56;;;;;;;3.67;2.42;;;;;;;-145.63;100.00;61273.97;5063980;28;20032;-64
2023/12/30 03:48:22;;;;;;;3.30;2.60;;;;;;;-145.63;100.00;61273.97;5063539;28;20040;-64
2023/12/30 03:50:48;;;;;;;2.35;1.90;;;;;;;-145.63;100.00;61273.97;5063957;28;20029;-64
2023/12/30 03:53:14;;;;;;;2.35;2.15;;;;;;;-145.63;100.00;61273.97;5059257;28;20064;-65
2023/12/30 03:55:39;;;;;;;3.35;2.38;;;;;;;-145.63;100.00;61273.97;5058864;28;20036;-64
2023/12/30 03:58:05;;;;;;;2.90;1.77;;;;;;;-145.63;100.00;61273.97;5063819;28;20041;-64
2023/12/30 04:00:30;;;;;;;2.10;1.90;;;;;;;-145.63;100.00;61273.97;5056779;28;20032;-63
2023/12/30 04:02:56;;;;;;;2.90;2.53;;;;;;;-145.63;100.00;61273.97;5046457;28;20045;-63
2023/12/30 04:05:22;;;;;;;1.98;1.75;;;;;;;-145.63;100.00;61273.97;5063393;28;20021;-64
2023/12/30 04:07:48;;;;;;;2.17;1.98;;;;;;;-145.63;100.00;61273.97;5063574;28;20295;-64
2023/12/30 04:10:15;;;;;;;3.88;2.30;;;;;;;-145.63;100.00;61273.97;5063616;28;20070;-64
2023/12/30 04:12:41;;;;;;;2.45;1.85;;;;;;;-145.63;100.00;61273.97;5063426;28;20036;-64
2023/12/30 04:15:08;;;;;;;2.17;1.80;;;;;;;-145.63;100.00;61273.97;5063591;28;20029;-65
2023/12/30 04:17:34;;;;;;;2.63;2.25;;;;;;;-145.63;100.00;61273.97;5063812;28;20047;-65
2023/12/30 04:19:59;;;;;;;2.65;1.98;;;;;;;-145.63;100.00;61273.97;5043918;28;20045;-64
2023/12/30 04:22:27;;;;;;;2.30;1.90;;;;;;;-145.63;100.00;61273.97;5058444;28;20025;-64
2023/12/30 04:24:53;;;;;;;1.70;1.60;;;;;;;-145.63;100.00;61273.97;5057593;28;20070;-65
2023/12/30 04:27:18;;;;;;;3.30;2.88;;;;;;;-145.63;100.00;61273.97;5063631;28;20088;-65
2023/12/30 04:29:44;;;;;;;3.50;2.67;;;;;;;-145.63;100.00;61273.97;5062463;28;20104;-64
2023/12/30 04:32:10;;;;;;;4.65;4.15;;;;;;;-145.63;100.00;61273.97;5043444;28;20502;-63
2023/12/30 04:34:35;;;;;;;2.00;1.80;;;;;;;-145.63;100.00;61273.97;5057947;28;20027;-64
2023/12/30 04:37:02;;;;;;;4.05;2.90;;;;;;;-145.63;100.00;61273.97;5063153;28;20634;-64
2023/12/30 04:39:27;;;;;;;2.10;1.90;;;;;;;-145.63;100.00;61273.97;5056132;28;20034;-65
2023/12/30 04:41:53;;;;;;;4.60;2.08;;;;;;;-145.63;100.00;61273.97;5060110;28;20027;-64
2023/12/30 04:44:19;;;;;;;2.58;2.28;;;;;;;-145.63;100.00;61273.97;5063334;28;20029;-64
2023/12/30 04:46:44;;;;;;;2.35;1.67;;;;;;;-145.63;100.00;61273.97;5062116;28;20021;-64
2023/12/30 04:49:11;;;;;;;1.58;1.35;;;;;;;-145.63;100.00;61273.97;5062894;28;20028;-64
2023/12/30 04:51:37;;;;;;;1.98;1.63;;;;;;;-145.63;100.00;61273.97;5063092;28;20033;-64
2023/12/30 04:54:03;;;;;;;3.08;1.88;;;;;;;-145.63;100.00;61273.97;5062918;28;20029;-63
2023/12/30 04:56:29;;;;;;;2.10;1.42;;;;;;;-145.63;100.00;61273.97;5062927;28;20294;-63
2023/12/30 04:58:56;;;;;;;2.15;1.75;;;;;;;-145.63;100.00;61273.97;5062846;28;20025;-62
2023/12/30 05:01:21;;;;;;;3.25;1.52;;;;;;;-145.63;100.00;61273.97;5077140;28;20105;-63
2023/12/30 05:03:47;;;;;;;3.20;1.83;;;;;;;-145.63;100.00;61273.97;5068754;28;20029;-63
2023/12/30 05:06:23;;;;;;;2.00;1.45;;;;;;;-145.63;100.00;61273.97;5062513;28;20428;-62
2023/12/30 05:08:51;;;;;;;1.80;1.70;;;;;;;-145.63;100.00;61273.97;5062515;28;20213;-65
2023/12/30 05:11:17;;;;;;;2.83;1.70;;;;;;;-145.63;100.00;61273.97;5062847;28;20290;-65
2023/12/30 05:13:43;;;;;;;3.70;2.45;;;;;;;-145.63;100.00;61273.97;5063086;28;20024;-65
2023/12/30 05:16:09;;;;;;;2.28;1.95;;;;;;;-145.63;100.00;61273.97;5062187;28;20054;-65
2023/12/30 05:18:35;;;;;;;2.33;1.80;;;;;;;-145.63;100.00;61273.97;5054713;28;20036;-65
2023/12/30 05:21:02;;;;;;;4.03;2.05;;;;;;;-145.63;100.00;61273.97;5045042;28;20033;-64
2023/12/30 05:23:27;;;;;;;2.85;1.95;;;;;;;-145.63;100.00;61273.97;5078290;28;20032;-64
2023/12/30 05:25:53;;;;;;;3.47;1.90;;;;;;;-145.63;100.00;61273.97;5053469;28;20137;-64
2023/12/30 05:28:19;;;;;;;2.42;1.73;;;;;;;-145.63;100.00;61273.97;5057168;28;20139;-64
2023/12/30 05:30:44;;;;;;;2.30;1.88;;;;;;;-145.63;100.00;61273.97;5053677;28;20025;-64
2023/12/30 05:33:10;;;;;;;1.70;1.60;;;;;;;-145.63;100.00;61273.97;5046504;28;20025;-63
2023/12/30 05:35:36;;;;;;;2.78;2.20;;;;;;;-145.63;100.00;61273.97;5062328;28;20040;-66
2023/12/30 05:38:03;;;;;;;2.67;2.10;;;;;;;-145.63;100.00;61273.97;5062273;28;20037;-66
2023/12/30 05:40:30;;;;;;;2.55;2.00;;;;;;;-145.63;100.00;61273.97;5047835;28;20108;-62
2023/12/30 05:42:55;;;;;;;5.75;1.80;;;;;;;-145.63;100.00;61273.97;5052385;28;20339;-63
2023/12/30 05:45:21;;;;;;;2.28;1.90;;;;;;;-145.63;100.00;61273.97;5062101;28;20029;-63
2023/12/30 05:47:47;;;;;;;2.60;1.95;;;;;;;-145.63;100.00;61273.97;5060621;28;20044;-63
2023/12/30 05:50:12;;;;;;;2.30;2.03;;;;;;;-145.63;100.00;61273.97;5065222;28;20044;-65
2023/12/30 05:52:38;;;;;;;2.13;1.95;;;;;;;-145.63;100.00;61273.97;5066484;28;20036;-64
2023/12/30 05:55:05;;;;;;;3.72;2.08;;;;;;;-145.63;100.00;61273.97;5065728;28;20096;-65
2023/12/30 05:57:31;;;;;;;2.78;2.10;;;;;;;-145.63;100.00;61273.97;5066757;28;20077;-64
2023/12/30 05:59:56;;;;;;;2.47;1.90;;;;;;;-145.63;100.00;61273.97;5064482;28;20028;-64
2023/12/30 06:02:22;;;;;;;3.05;2.03;;;;;;;-145.63;100.00;61273.97;5060733;28;20262;-64
2023/12/30 06:04:48;;;;;;;1.98;1.67;;;;;;;-145.63;100.00;61273.97;5065373;28;20029;-64
2023/12/30 06:07:14;;;;;;;2.35;1.90;;;;;;;-145.63;100.00;61273.97;5065423;28;20040;-64
2023/12/30 06:09:41;;;;;;;2.33;1.80;;;;;;;-145.63;100.00;61273.97;5066014;28;20033;-64
2023/12/30 06:12:08;;;;;;;2.65;1.63;;;;;;;-145.63;100.00;61273.97;5065951;28;20025;-64
2023/12/30 06:14:36;;;;;;;2.10;1.85;;;;;;;-145.63;100.00;61273.97;5066407;28;20017;-64
2023/12/30 06:17:02;;;;;;;2.60;1.80;;;;;;;-145.63;100.00;61273.97;5062023;28;20033;-64
2023/12/30 06:19:28;;;;;;;1.73;1.63;;;;;;;-145.63;100.00;61273.97;5065977;28;20070;-65
2023/12/30 06:21:54;;;;;;;2.20;1.70;;;;;;;-145.63;100.00;61273.97;5065783;28;20028;-64
2023/12/30 06:24:20;;;;;;;5.20;1.60;;;;;;;-145.63;100.00;61273.97;5065829;28;20025;-64
2023/12/30 06:26:46;;;;;;;2.20;1.70;;;;;;;-145.63;100.00;61273.97;5065955;28;20056;-63
2023/12/30 06:29:12;;;;;;;2.70;1.80;;;;;;;-145.63;100.00;61273.97;5064907;28;20025;-64
2023/12/30 06:31:41;;;;;;;3.13;2.17;;;;;;;-145.63;100.00;61273.97;5065637;28;20286;-63
2023/12/30 06:34:08;;;;;;;3.55;1.70;;;;;;;-145.63;100.00;61273.97;5065621;28;20056;-64
2023/12/30 06:36:33;;;;;;;3.92;1.73;;;;;;;-145.63;100.00;61273.97;5064131;28;20400;-63
2023/12/30 06:38:59;;;;;;;2.15;1.65;;;;;;;-145.63;100.00;61273.97;5047564;28;20029;-63
2023/12/30 06:41:25;;;;;;;3.85;1.60;;;;;;;-145.63;100.00;61273.97;5065489;28;20029;-63
2023/12/30 06:43:51;;;;;;;1.70;1.50;;;;;;;-145.63;100.00;61273.97;5048452;28;20036;-64
2023/12/30 06:46:20;;;;;;;2.42;1.60;;;;;;;-145.63;100.00;61273.97;5057045;28;20029;-64
2023/12/30 06:48:47;;;;;;;1.52;1.42;;;;;;;-145.63;100.00;61273.97;5056277;28;20036;-64
2023/12/30 06:51:12;;;;;;;1.33;1.20;;;;;;;-145.63;100.00;61273.97;5065271;28;20043;-64
2023/12/30 06:53:38;;;;;;;2.38;1.30;;;;;;;-145.63;100.00;61273.97;5065170;28;20139;-65
2023/12/30 06:56:05;;;;;;;6.28;4.90;;;;;;;-145.63;100.00;61273.97;5064852;28;20040;-65
2023/12/30 06:58:31;;;;;;;12.57;10.18;;;;;;;-145.63;100.00;61273.97;5064977;28;20354;-64
2023/12/30 07:00:57;;;;;;;2.67;2.03;;;;;;;-145.63;100.00;61273.97;5054296;28;20060;-65
2023/12/30 07:03:23;;;;;;;3.67;2.90;;;;;;;-145.63;100.00;61273.97;5056159;28;20382;-64
2023/12/30 07:05:48;;;;;;;6.68;3.30;;;;;;;-145.63;100.00;61273.97;5064827;28;20055;-64
2023/12/30 07:08:14;;;;;;;9.43;6.90;;;;;;;-145.63;100.00;61273.97;5064273;28;20079;-65
2023/12/30 07:10:40;;;;;;;4.78;2.53;;;;;;;-145.63;100.00;61273.97;5064909;28;20095;-62
2023/12/30 07:13:06;;;;;;;2.17;1.63;;;;;;;-145.63;100.00;61273.97;5064771;28;20035;-64
2023/12/30 07:15:32;;;;;;;1.77;1.55;;;;;;;-145.63;100.00;61273.97;5064895;28;20025;-65
2023/12/30 07:17:58;;;;;;;2.65;1.92;;;;;;;-145.63;100.00;61273.97;5064613;28;20228;-65
2023/12/30 07:20:26;;;;;;;3.65;2.35;;;;;;;-145.63;100.00;61273.97;5064937;28;20092;-65
2023/12/30 07:22:53;;;;;;;4.68;3.75;;;;;;;-145.63;100.00;61273.97;5079699;28;20248;-64
2023/12/30 07:25:19;;;;;;;5.97;4.25;;;;;;;-145.63;100.00;61273.97;5064576;28;20028;-63
2023/12/30 07:27:44;;;;;;;2.35;2.15;;;;;;;-145.63;100.00;61273.97;5057021;28;20025;-63
2023/12/30 07:30:11;;;;;;;1.50;1.40;;;;;;;-145.63;100.00;61273.97;5047392;28;20037;-63
2023/12/30 07:32:37;;;;;;;2.13;1.90;;;;;;;-145.63;100.00;61273.97;5064365;28;20245;-62
2023/12/30 07:35:06;;;;;;;3.63;1.75;;;;;;;-145.63;100.00;61273.97;5045902;28;20053;-62
2023/12/30 07:37:33;;;;;;;1.40;1.30;;;;;;;-145.63;100.00;61273.97;5058495;28;20394;-63
2023/12/30 07:40:00;;;;;;;1.20;1.10;;;;;;;-145.63;100.00;61273.97;5063698;28;20041;-65
2023/12/30 07:42:26;;;;;;;1.90;1.70;;;;;;;-145.63;100.00;61273.97;5064050;28;20036;-65
2023/12/30 07:44:53;;;;;;;1.25;1.15;;;;;;;-145.63;100.00;61273.97;5063892;28;20093;-66
2023/12/30 07:47:19;;;;;;;2.83;1.50;;;;;;;-145.63;100.00;61273.97;5053033;28;20044;-67
2023/12/30 07:49:48;;;;;;;3.38;1.38;;;;;;;-145.63;100.00;61273.97;5062741;28;20028;-64
2023/12/30 07:52:14;;;;;;;1.75;1.50;;;;;;;-145.63;100.00;61273.97;5060378;28;20364;-66
2023/12/30 07:54:39;;;;;;;3.30;1.33;;;;;;;-145.63;100.00;61273.97;5064131;28;20104;-63
2023/12/30 07:57:05;;;;;;;2.08;1.20;;;;;;;-145.63;100.00;61273.97;5065823;28;20099;-64
2023/12/30 07:59:31;;;;;;;1.65;1.30;;;;;;;-145.63;100.00;61273.97;5066012;28;20036;-64
2023/12/30 08:01:56;;;;;;;2.30;1.50;;;;;;;-145.63;100.00;61273.97;5063736;28;20031;-65
2023/12/30 08:04:23;;;;;;;3.47;1.52;;;;;;;-145.63;100.00;61273.97;5051515;28;20040;-65
2023/12/30 08:06:49;;;;;;;1.80;1.30;;;;;;;-145.63;100.00;61273.97;5050825;28;20032;-64
2023/12/30 08:09:15;;;;;;;1.90;1.13;;;;;;;-145.63;100.00;61273.97;5063188;28;20033;-66
2023/12/30 08:11:42;;;;;;;1.75;1.42;;;;;;;-145.63;100.00;61273.97;5061126;28;20066;-65
2023/12/30 08:14:08;;;;;;;1.75;1.60;;;;;;;-145.63;100.00;61273.97;5062833;28;20252;-66
2023/12/30 08:16:36;;;;;;;1.83;1.50;;;;;;;-145.63;100.00;61273.97;5063339;28;20301;-65
2023/12/30 08:19:03;;;;;;;2.45;1.40;;;;;;;-145.63;100.00;61273.97;5053804;28;20245;-66
2023/12/30 08:21:29;;;;;;;2.80;1.58;;;;;;;-145.63;100.00;61273.97;5053373;28;20062;-63
2023/12/30 08:23:57;;;;;;;2.05;1.50;;;;;;;-145.63;100.00;61273.97;5066674;28;20228;-66
2023/12/30 08:26:23;;;;;;;2.33;2.08;;;;;;;-145.63;100.00;61273.97;5077168;28;20028;-64
2023/12/30 08:28:50;;;;;;;1.70;1.60;;;;;;;-145.63;100.00;61273.97;5063106;28;20092;-64
2023/12/30 08:31:16;;;;;;;3.25;1.90;;;;;;;-145.63;100.00;61273.97;5063471;28;20021;-64
2023/12/30 08:33:43;;;;;;;1.98;1.50;;;;;;;-145.63;100.00;61273.97;5063002;28;20025;-64
2023/12/30 08:36:09;;;;;;;1.58;1.45;;;;;;;-145.63;100.00;61273.97;5063091;28;20041;-64
2023/12/30 08:38:34;;;;;;;2.13;1.80;;;;;;;-145.63;100.00;61273.97;5063179;28;20355;-64
2023/12/30 08:41:01;;;;;;;2.78;1.70;;;;;;;-145.63;100.00;61273.97;5062624;28;20242;-64
2023/12/30 08:43:28;;;;;;;2.00;1.80;;;;;;;-145.63;100.00;61273.97;5049105;28;20040;-65
2023/12/30 08:45:53;;;;;;;1.90;1.80;;;;;;;-145.63;100.00;61273.97;5050026;28;20025;-64
2023/12/30 08:48:19;;;;;;;2.58;1.80;;;;;;;-145.63;100.00;61273.97;5062385;28;20370;-64
2023/12/30 08:50:45;;;;;;;2.15;1.77;;;;;;;-145.63;100.00;61273.97;5062513;28;20313;-64
2023/12/30 08:53:11;;;;;;;3.65;1.63;;;;;;;-145.63;100.00;61273.97;5060638;28;20029;-64
2023/12/30 08:55:37;;;;;;;1.77;1.67;;;;;;;-145.63;100.00;61273.97;5062316;28;20037;-65
2023/12/30 08:58:03;;;;;;;2.28;1.80;;;;;;;-145.63;100.00;61273.97;5060473;28;20248;-64
2023/12/30 09:00:29;;;;;;;2.00;1.80;;;;;;;-145.63;100.00;61273.97;5059356;28;20036;-64
2023/12/30 09:02:55;;;;;;;2.85;1.58;;;;;;;-145.63;100.00;61273.97;5062337;28;20021;-65
2023/12/30 09:05:21;;;;;;;3.13;2.00;;;;;;;-145.63;100.00;61273.97;5060600;28;20021;-64
2023/12/30 09:07:51;;;;;;;2.22;2.00;;;;;;;-145.63;100.00;61273.97;5060337;28;20400;-64
2023/12/30 09:10:18;;;;;;;3.15;2.05;;;;;;;-145.63;100.00;61273.97;5056444;28;20237;-65
2023/12/30 09:12:45;;;;;;;3.78;2.35;;;;;;;-145.63;100.00;61273.97;5061062;28;20083;-64
2023/12/30 09:15:10;;;;;;;2.00;1.85;;;;;;;-145.63;100.00;61273.97;5062556;28;20092;-63
2023/12/30 09:17:36;;;;;;;2.22;2.08;;;;;;;-145.63;100.00;61273.97;5062496;28;20029;-63
2023/12/30 09:20:03;;;;;;;2.30;1.75;;;;;;;-145.63;100.00;61273.97;5079628;28;20202;-63
2023/12/30 09:22:31;;;;;;;2.60;2.17;;;;;;;-145.63;100.00;61273.97;5070071;28;20035;-63
2023/12/30 09:24:57;;;;;;;4.75;2.13;;;;;;;-145.63;100.00;61273.97;5060589;28;20293;-64
2023/12/30 09:27:23;;;;;;;3.42;2.03;;;;;;;-145.63;100.00;61273.97;5062325;28;20140;-64
2023/12/30 09:29:49;;;;;;;3.00;2.13;;;;;;;-145.63;100.00;61273.97;5062522;28;20259;-64
2023/12/30 09:32:15;;;;;;;4.30;2.40;;;;;;;-145.63;100.00;61273.97;5043681;28;20037;-63
2023/12/30 09:34:41;;;;;;;2.78;2.35;;;;;;;-145.63;100.00;61273.97;5038673;28;20210;-65
2023/12/30 09:37:06;;;;;;;2.20;2.00;;;;;;;-145.63;100.00;61273.97;5052898;28;20040;-62
2023/12/30 09:39:32;;;;;;;3.17;2.28;;;;;;;-145.63;100.00;61273.97;5047245;28;20029;-62
2023/12/30 09:41:58;;;;;;;3.05;2.10;;;;;;;-145.63;100.00;61273.97;5061988;28;20305;-67
2023/12/30 09:44:25;;;;;;;3.53;2.22;;;;;;;-145.63;100.00;61273.97;5061291;28;20021;-64
2023/12/30 09:46:53;;;;;;;3.25;2.15;;;;;;;-145.63;100.00;61273.97;5060023;28;20033;-65
2023/12/30 09:49:20;;;;;;;4.88;2.38;;;;;;;-145.63;100.00;61273.97;5061999;28;20035;-66
2023/12/30 09:51:46;;;;;;;4.32;2.67;;;;;;;-145.63;100.00;61273.97;5062064;28;20029;-64
2023/12/30 09:54:11;;;;;;;4.88;3.28;;;;;;;-145.63;100.00;61273.97;5062045;28;20032;-64
2023/12/30 09:56:40;;;;;;;4.30;3.30;;;;;;;-145.63;100.00;61273.97;5062306;28;20108;-63
2023/12/30 09:59:06;;;;;;;3.67;2.92;;;;;;;-145.63;100.00;61273.97;5060763;28;20332;-64
2023/12/30 10:01:33;;;;;;;3.78;2.83;;;;;;;-145.63;100.00;61273.97;5061974;28;20031;-64
2023/12/30 10:03:59;;;;;;;4.00;2.85;;;;;;;-145.63;100.00;61273.97;5060669;28;20041;-65
2023/12/30 10:06:25;;;;;;;2.80;2.40;;;;;;;-145.63;100.00;61273.97;5061815;28;20029;-64
2023/12/30 10:08:51;;;;;;;5.72;2.85;;;;;;;-145.63;100.00;61273.97;5060339;28;20256;-64
2023/12/30 10:11:17;;;;;;;4.53;2.88;;;;;;;-145.63;100.00;61273.97;5061443;28;20052;-63
2023/12/30 10:13:44;;;;;;;7.68;2.67;;;;;;;-145.63;100.00;61273.97;5061812;28;20029;-64
2023/12/30 10:16:09;;;;;;;2.65;2.20;;;;;;;-145.63;100.00;61273.97;5061830;28;20131;-63
2023/12/30 10:18:36;;;;;;;2.80;2.47;;;;;;;-145.63;100.00;61273.97;5061850;28;20056;-64
2023/12/30 10:21:03;;;;;;;2.85;2.50;;;;;;;-145.63;100.00;61273.97;5061120;28;20032;-62
2023/12/30 10:23:34;;;;;;;3.30;2.65;;;;;;;-145.63;100.00;61273.97;5056339;28;20035;-62
2023/12/30 10:26:03;;;;;;;3.40;2.60;;;;;;;-145.63;100.00;61273.97;5055884;28;20036;-63
2023/12/30 10:28:32;;;;;;;3.17;2.63;;;;;;;-145.63;100.00;61273.97;5059400;28;20052;-63
2023/12/30 10:31:06;;;;;;;5.07;3.25;;;;;;;-145.63;100.00;61273.97;5060090;28;20033;-64
2023/12/30 10:33:33;;;;;;;2.83;2.53;;;;;;;-145.63;100.00;61273.97;5058554;28;20028;-64
2023/12/30 10:35:59;;;;;;;4.75;2.63;;;;;;;-145.63;100.00;61273.97;5061254;28;20108;-64
2023/12/30 10:38:26;;;;;;;4.68;3.30;;;;;;;-145.63;100.00;61273.97;5065038;28;20043;-64
2023/12/30 10:40:52;;;;;;;4.35;3.20;;;;;;;-145.63;100.00;61273.97;5065020;28;20083;-64
2023/12/30 10:43:19;;;;;;;4.63;2.72;;;;;;;-145.63;100.00;61273.97;5064474;28;20025;-64
2023/12/30 10:46:09;;;;;;;4.97;2.40;;;;;;;-145.63;100.00;61273.97;5060440;28;20040;-65
2023/12/30 10:48:50;;;;;;;4.97;3.03;;;;;;;-145.63;100.00;61273.97;5058876;28;20253;-65
2023/12/30 10:51:19;;;;;;;4.20;2.65;;;;;;;-145.63;100.00;61273.97;5063906;28;20024;-65
2023/12/30 10:53:53;;;;;;;4.18;3.10;;;;;;;-145.63;100.00;61273.97;5062430;28;20063;-66
2023/12/30 10:56:26;;;;;;;5.93;3.70;;;;;;;-145.63;100.00;61273.97;5046579;28;20036;-66
2023/12/30 10:58:53;;;;;;;6.45;3.45;;;;;;;-145.63;100.00;61273.97;5060077;28;20036;-68
2023/12/30 11:01:19;;;;;;;4.03;3.40;;;;;;;-145.63;100.00;61273.97;5065208;28;20051;-64
2023/12/30 11:03:46;;;;;;;3.70;2.83;;;;;;;-145.63;100.00;61273.97;5058075;28;20033;-67
2023/12/30 11:06:35;;;;;;;6.28;3.10;;;;;;;-145.63;100.00;61273.97;5046020;28;20222;-66